sensor_id;sensor_type;location;lat;lon;timestamp;pressure;altitude;pressure_sealevel;temperature;humidity
74329;BME280;62749;51.982;5.916;2023-12-14T00:00:41;100562.41;;;6.60;100.00
74329;BME280;62749;51.982;5.916;2023-12-14T00:03:10;100565.91;;;6.61;100.00
74329;BME280;62749;51.982;5.916;2023-12-14T00:05:39;100566.81;;;6.58;100.00
74329;BME280;62749;51.982;5.916;2023-12-14T00:08:09;100577.22;;;6.63;100.00
74329;BME280;62749;51.982;5.916;2023-12-14T00:10:40;100582.56;;;6.60;100.00
74329;BME280;62749;51.982;5.916;2023-12-14T00:13:10;100581.81;;;6.55;100.00
74329;BME280;62749;51.982;5.916;2023-12-14T00:18:28;100600.28;;;6.52;100.00
74329;BME280;62749;51.982;5.916;2023-12-14T00:20:57;100595.13;;;6.49;100.00
74329;BME280;62749;51.982;5.916;2023-12-14T00:23:27;100603.13;;;6.44;100.00
74329;BME280;62749;51.982;5.916;2023-12-14T00:25:58;100617.16;;;6.43;100.00
74329;BME280;62749;51.982;5.916;2023-12-14T00:28:28;100622.34;;;6.44;100.00
74329;BME280;62749;51.982;5.916;2023-12-14T00:30:57;100626.75;;;6.44;100.00
74329;BME280;62749;51.982;5.916;2023-12-14T00:33:26;100638.84;;;6.50;100.00
74329;BME280;62749;51.982;5.916;2023-12-14T00:35:56;100636.34;;;6.45;100.00
74329;BME280;62749;51.982;5.916;2023-12-14T00:38:25;100646.88;;;6.43;100.00
74329;BME280;62749;51.982;5.916;2023-12-14T00:40:55;100652.19;;;6.40;100.00
74329;BME280;62749;51.982;5.916;2023-12-14T00:43:45;100660.25;;;6.34;100.00
74329;BME280;62749;51.982;5.916;2023-12-14T00:46:14;100651.41;;;6.37;100.00
74329;BME280;62749;51.982;5.916;2023-12-14T00:48:43;100659.53;;;6.27;100.00
74329;BME280;62749;51.982;5.916;2023-12-14T00:51:13;100664.72;;;6.31;100.00
74329;BME280;62749;51.982;5.916;2023-12-14T00:53:42;100667.34;;;6.29;100.00
74329;BME280;62749;51.982;5.916;2023-12-14T00:56:12;100668.38;;;6.25;100.00
74329;BME280;62749;51.982;5.916;2023-12-14T00:58:41;100676.25;;;6.23;100.00
74329;BME280;62749;51.982;5.916;2023-12-14T01:01:13;100678.75;;;6.28;100.00
74329;BME280;62749;51.982;5.916;2023-12-14T01:03:42;100689.31;;;6.26;100.00
74329;BME280;62749;51.982;5.916;2023-12-14T01:06:11;100691.88;;;6.28;100.00
74329;BME280;62749;51.982;5.916;2023-12-14T01:08:41;100700.75;;;6.24;100.00
74329;BME280;62749;51.982;5.916;2023-12-14T01:11:10;100692.88;;;6.24;100.00
74329;BME280;62749;51.982;5.916;2023-12-14T01:13:40;100690.28;;;6.22;100.00
74329;BME280;62749;51.982;5.916;2023-12-14T01:16:09;100694.53;;;6.26;100.00
74329;BME280;62749;51.982;5.916;2023-12-14T01:18:42;100701.56;;;6.26;100.00
74329;BME280;62749;51.982;5.916;2023-12-14T01:21:12;100703.19;;;6.30;100.00
74329;BME280;62749;51.982;5.916;2023-12-14T01:23:41;100713.69;;;6.30;100.00
74329;BME280;62749;51.982;5.916;2023-12-14T01:26:10;100707.50;;;6.33;100.00
74329;BME280;62749;51.982;5.916;2023-12-14T01:28:40;100701.53;;;6.27;100.00
74329;BME280;62749;51.982;5.916;2023-12-14T01:31:09;100679.31;;;6.06;100.00
74329;BME280;62749;51.982;5.916;2023-12-14T01:33:38;100713.47;;;6.03;100.00
74329;BME280;62749;51.982;5.916;2023-12-14T01:36:10;100728.06;;;6.15;100.00
74329;BME280;62749;51.982;5.916;2023-12-14T01:38:40;100742.06;;;6.14;100.00
74329;BME280;62749;51.982;5.916;2023-12-14T01:41:09;100747.16;;;6.20;100.00
74329;BME280;62749;51.982;5.916;2023-12-14T01:43:38;100751.44;;;6.24;100.00
74329;BME280;62749;51.982;5.916;2023-12-14T01:46:08;100749.72;;;6.23;100.00
74329;BME280;62749;51.982;5.916;2023-12-14T01:48:37;100759.38;;;6.21;100.00
74329;BME280;62749;51.982;5.916;2023-12-14T01:51:09;100763.91;;;6.14;100.00
74329;BME280;62749;51.982;5.916;2023-12-14T01:53:39;100769.25;;;6.11;100.00
74329;BME280;62749;51.982;5.916;2023-12-14T01:56:08;100742.44;;;5.97;100.00
74329;BME280;62749;51.982;5.916;2023-12-14T01:58:38;100776.19;;;6.14;100.00
74329;BME280;62749;51.982;5.916;2023-12-14T02:01:18;100784.88;;;6.16;100.00
74329;BME280;62749;51.982;5.916;2023-12-14T02:03:52;100790.38;;;6.05;100.00
74329;BME280;62749;51.982;5.916;2023-12-14T02:06:24;100784.38;;;6.00;100.00
74329;BME280;62749;51.982;5.916;2023-12-14T02:08:53;100795.59;;;6.05;100.00
74329;BME280;62749;51.982;5.916;2023-12-14T02:11:22;100794.66;;;6.08;100.00
74329;BME280;62749;51.982;5.916;2023-12-14T02:14:08;100789.50;;;6.05;100.00
74329;BME280;62749;51.982;5.916;2023-12-14T02:16:38;100800.75;;;6.10;100.00
74329;BME280;62749;51.982;5.916;2023-12-14T02:19:07;100795.47;;;6.11;100.00
74329;BME280;62749;51.982;5.916;2023-12-14T02:21:39;100807.59;;;6.16;100.00
74329;BME280;62749;51.982;5.916;2023-12-14T02:24:11;100817.31;;;6.12;100.00
74329;BME280;62749;51.982;5.916;2023-12-14T02:26:41;100817.25;;;6.15;100.00
74329;BME280;62749;51.982;5.916;2023-12-14T02:29:10;100812.00;;;6.15;100.00
74329;BME280;62749;51.982;5.916;2023-12-14T02:31:39;100826.72;;;6.21;100.00
74329;BME280;62749;51.982;5.916;2023-12-14T02:34:09;100819.03;;;6.13;100.00
74329;BME280;62749;51.982;5.916;2023-12-14T02:36:38;100842.31;;;6.27;100.00
74329;BME280;62749;51.982;5.916;2023-12-14T02:39:07;100839.84;;;6.21;100.00
74329;BME280;62749;51.982;5.916;2023-12-14T02:41:39;100838.25;;;6.15;100.00
74329;BME280;62749;51.982;5.916;2023-12-14T02:44:09;100840.81;;;6.17;100.00
74329;BME280;62749;51.982;5.916;2023-12-14T02:46:38;100852.06;;;6.22;100.00
74329;BME280;62749;51.982;5.916;2023-12-14T02:49:08;100847.03;;;6.12;100.00
74329;BME280;62749;51.982;5.916;2023-12-14T02:51:37;100850.56;;;6.10;100.00
74329;BME280;62749;51.982;5.916;2023-12-14T02:54:06;100862.78;;;6.12;100.00
74329;BME280;62749;51.982;5.916;2023-12-14T02:56:38;100861.84;;;6.13;100.00
74329;BME280;62749;51.982;5.916;2023-12-14T02:59:08;100872.22;;;6.20;100.00
74329;BME280;62749;51.982;5.916;2023-12-14T03:01:37;100872.44;;;6.10;100.00
74329;BME280;62749;51.982;5.916;2023-12-14T03:04:07;100875.97;;;6.08;100.00
74329;BME280;62749;51.982;5.916;2023-12-14T03:06:36;100872.34;;;6.13;100.00
74329;BME280;62749;51.982;5.916;2023-12-14T03:09:06;100888.81;;;6.20;100.00
74329;BME280;62749;51.982;5.916;2023-12-14T03:11:35;100895.78;;;6.21;100.00
74329;BME280;62749;51.982;5.916;2023-12-14T03:14:07;100893.22;;;6.20;100.00
74329;BME280;62749;51.982;5.916;2023-12-14T03:16:36;100891.53;;;6.17;100.00
74329;BME280;62749;51.982;5.916;2023-12-14T03:19:05;100899.47;;;6.14;100.00
74329;BME280;62749;51.982;5.916;2023-12-14T03:21:35;100896.00;;;6.12;100.00
74329;BME280;62749;51.982;5.916;2023-12-14T03:24:04;100903.78;;;6.17;100.00
74329;BME280;62749;51.982;5.916;2023-12-14T03:26:34;100906.50;;;6.12;100.00
74329;BME280;62749;51.982;5.916;2023-12-14T03:29:03;100903.97;;;6.07;100.00
74329;BME280;62749;51.982;5.916;2023-12-14T03:31:37;100917.94;;;6.09;100.00
74329;BME280;62749;51.982;5.916;2023-12-14T03:34:06;100903.09;;;6.08;100.00
74329;BME280;62749;51.982;5.916;2023-12-14T03:36:35;100908.22;;;6.13;100.00
74329;BME280;62749;51.982;5.916;2023-12-14T03:39:05;100903.91;;;6.10;100.00
74329;BME280;62749;51.982;5.916;2023-12-14T03:41:34;100900.41;;;6.11;100.00
74329;BME280;62749;51.982;5.916;2023-12-14T03:44:04;100906.59;;;6.07;100.00
74329;BME280;62749;51.982;5.916;2023-12-14T03:46:33;100912.78;;;6.03;100.00
74329;BME280;62749;51.982;5.916;2023-12-14T03:49:05;100923.22;;;6.06;100.00
74329;BME280;62749;51.982;5.916;2023-12-14T03:51:35;100917.88;;;6.11;100.00
74329;BME280;62749;51.982;5.916;2023-12-14T03:54:04;100922.44;;;6.03;100.00
74329;BME280;62749;51.982;5.916;2023-12-14T03:56:34;100926.75;;;6.05;100.00
74329;BME280;62749;51.982;5.916;2023-12-14T03:59:03;100932.84;;;6.07;100.00
74329;BME280;62749;51.982;5.916;2023-12-14T04:01:33;100937.13;;;6.10;100.00
74329;BME280;62749;51.982;5.916;2023-12-14T04:04:07;100941.50;;;6.11;100.00
74329;BME280;62749;51.982;5.916;2023-12-14T04:06:38;100937.09;;;6.13;100.00
74329;BME280;62749;51.982;5.916;2023-12-14T04:09:07;100945.00;;;6.11;100.00
74329;BME280;62749;51.982;5.916;2023-12-14T04:11:36;100945.00;;;6.11;100.00
74329;BME280;62749;51.982;5.916;2023-12-14T04:14:06;100948.41;;;6.15;100.00
74329;BME280;62749;51.982;5.916;2023-12-14T04:16:36;100951.97;;;6.12;100.00
74329;BME280;62749;51.982;5.916;2023-12-14T04:19:08;100949.59;;;6.00;100.00
74329;BME280;62749;51.982;5.916;2023-12-14T04:21:37;100951.41;;;5.95;100.00
74329;BME280;62749;51.982;5.916;2023-12-14T04:24:07;100948.75;;;5.96;100.00
74329;BME280;62749;51.982;5.916;2023-12-14T04:26:38;100951.41;;;5.95;100.00
74329;BME280;62749;51.982;5.916;2023-12-14T04:29:08;100960.13;;;5.97;100.00
74329;BME280;62749;51.982;5.916;2023-12-14T04:31:38;100962.75;;;5.95;100.00
74329;BME280;62749;51.982;5.916;2023-12-14T04:34:22;100974.06;;;5.99;100.00
74329;BME280;62749;51.982;5.916;2023-12-14T04:36:51;100969.66;;;6.01;100.00
74329;BME280;62749;51.982;5.916;2023-12-14T04:39:24;100975.75;;;6.03;100.00
74329;BME280;62749;51.982;5.916;2023-12-14T04:41:54;100977.47;;;6.04;100.00
74329;BME280;62749;51.982;5.916;2023-12-14T04:44:23;100998.44;;;6.06;100.00
74329;BME280;62749;51.982;5.916;2023-12-14T04:46:52;101001.88;;;6.09;100.00
74329;BME280;62749;51.982;5.916;2023-12-14T04:49:24;101011.47;;;6.10;100.00
74329;BME280;62749;51.982;5.916;2023-12-14T04:51:54;101016.88;;;6.01;100.00
74329;BME280;62749;51.982;5.916;2023-12-14T04:54:23;101006.38;;;6.01;100.00
74329;BME280;62749;51.982;5.916;2023-12-14T04:56:52;101018.59;;;6.04;100.00
74329;BME280;62749;51.982;5.916;2023-12-14T04:59:22;101027.31;;;6.06;100.00
74329;BME280;62749;51.982;5.916;2023-12-14T05:01:51;101035.19;;;6.04;100.00
74329;BME280;62749;51.982;5.916;2023-12-14T05:04:20;101028.09;;;6.09;100.00
74329;BME280;62749;51.982;5.916;2023-12-14T05:06:52;101035.91;;;6.12;100.00
74329;BME280;62749;51.982;5.916;2023-12-14T05:09:21;101042.84;;;6.13;100.00
74329;BME280;62749;51.982;5.916;2023-12-14T05:11:51;101058.59;;;6.13;100.00
74329;BME280;62749;51.982;5.916;2023-12-14T05:14:20;101061.22;;;6.13;100.00
74329;BME280;62749;51.982;5.916;2023-12-14T05:16:50;101072.66;;;6.11;100.00
74329;BME280;62749;51.982;5.916;2023-12-14T05:19:19;101066.50;;;6.12;100.00
74329;BME280;62749;51.982;5.916;2023-12-14T05:21:49;101075.16;;;6.17;100.00
74329;BME280;62749;51.982;5.916;2023-12-14T05:24:23;101085.66;;;6.17;100.00
74329;BME280;62749;51.982;5.916;2023-12-14T05:26:52;101077.94;;;6.08;100.00
74329;BME280;62749;51.982;5.916;2023-12-14T05:29:21;101083.19;;;6.09;100.00
74329;BME280;62749;51.982;5.916;2023-12-14T05:31:51;101084.13;;;6.05;100.00
74329;BME280;62749;51.982;5.916;2023-12-14T05:34:20;101085.00;;;6.06;100.00
74329;BME280;62749;51.982;5.916;2023-12-14T05:36:49;101091.94;;;6.08;100.00
74329;BME280;62749;51.982;5.916;2023-12-14T05:39:19;101096.41;;;6.03;100.00
74329;BME280;62749;51.982;5.916;2023-12-14T05:42:08;101098.13;;;6.06;100.00
74329;BME280;62749;51.982;5.916;2023-12-14T05:44:37;101103.38;;;6.04;100.00
74329;BME280;62749;51.982;5.916;2023-12-14T05:47:07;101114.63;;;6.11;100.00
74329;BME280;62749;51.982;5.916;2023-12-14T05:49:36;101120.75;;;6.11;100.00
74329;BME280;62749;51.982;5.916;2023-12-14T05:52:06;101133.88;;;6.10;100.00
74329;BME280;62749;51.982;5.916;2023-12-14T05:54:35;101142.63;;;6.10;100.00
74329;BME280;62749;51.982;5.916;2023-12-14T05:57:07;101153.03;;;6.15;100.00
74329;BME280;62749;51.982;5.916;2023-12-14T05:59:39;101155.78;;;6.07;100.00
74329;BME280;62749;51.982;5.916;2023-12-14T06:02:08;101160.19;;;6.05;100.00
74329;BME280;62749;51.982;5.916;2023-12-14T06:04:38;101168.81;;;6.12;100.00
74329;BME280;62749;51.982;5.916;2023-12-14T06:07:07;101179.22;;;6.18;100.00
74329;BME280;62749;51.982;5.916;2023-12-14T06:09:36;101176.69;;;6.12;100.00
74329;BME280;62749;51.982;5.916;2023-12-14T06:12:08;101177.75;;;5.98;100.00
74329;BME280;62749;51.982;5.916;2023-12-14T06:14:38;101172.56;;;5.95;100.00
74329;BME280;62749;51.982;5.916;2023-12-14T06:20:19;101178.66;;;5.97;100.00
74329;BME280;62749;51.982;5.916;2023-12-14T06:22:49;101185.63;;;5.98;100.00
74329;BME280;62749;51.982;5.916;2023-12-14T06:25:18;101187.38;;;5.99;100.00
74329;BME280;62749;51.982;5.916;2023-12-14T06:27:50;101199.63;;;5.97;100.00
74329;BME280;62749;51.982;5.916;2023-12-14T06:30:20;101199.66;;;5.96;100.00
74329;BME280;62749;51.982;5.916;2023-12-14T06:32:50;101198.84;;;5.92;100.00
74329;BME280;62749;51.982;5.916;2023-12-14T06:35:19;101211.00;;;5.96;100.00
74329;BME280;62749;51.982;5.916;2023-12-14T06:37:48;101215.44;;;5.93;100.00
74329;BME280;62749;51.982;5.916;2023-12-14T06:40:18;101218.09;;;5.91;100.00
74329;BME280;62749;51.982;5.916;2023-12-14T06:42:50;101225.88;;;5.96;100.00
74329;BME280;62749;51.982;5.916;2023-12-14T06:45:19;101219.75;;;5.95;99.20
74329;BME280;62749;51.982;5.916;2023-12-14T06:47:48;101225.09;;;5.91;98.38
74329;BME280;62749;51.982;5.916;2023-12-14T06:50:32;101239.09;;;5.90;97.83
74329;BME280;62749;51.982;5.916;2023-12-14T06:53:01;101241.69;;;5.90;97.12
74329;BME280;62749;51.982;5.916;2023-12-14T06:55:30;101236.53;;;5.85;96.51
74329;BME280;62749;51.982;5.916;2023-12-14T06:58:02;101244.44;;;5.82;96.57
74329;BME280;62749;51.982;5.916;2023-12-14T07:00:35;101236.56;;;5.82;96.07
74329;BME280;62749;51.982;5.916;2023-12-14T07:03:04;101247.94;;;5.82;96.47
74329;BME280;62749;51.982;5.916;2023-12-14T07:05:33;101246.19;;;5.83;96.43
74329;BME280;62749;51.982;5.916;2023-12-14T07:08:03;101255.78;;;5.84;96.62
74329;BME280;62749;51.982;5.916;2023-12-14T07:10:33;101255.81;;;5.82;96.97
74329;BME280;62749;51.982;5.916;2023-12-14T07:13:05;101267.16;;;5.83;96.29
74329;BME280;62749;51.982;5.916;2023-12-14T07:15:34;101280.38;;;5.77;95.67
74329;BME280;62749;51.982;5.916;2023-12-14T07:18:04;101269.97;;;5.69;95.87
74329;BME280;62749;51.982;5.916;2023-12-14T07:20:33;101293.41;;;5.81;96.69
74329;BME280;62749;51.982;5.916;2023-12-14T07:23:02;101301.25;;;5.84;97.62
74329;BME280;62749;51.982;5.916;2023-12-14T07:25:32;101303.81;;;5.86;98.16
74329;BME280;62749;51.982;5.916;2023-12-14T07:28:01;101293.41;;;5.81;97.80
74329;BME280;62749;51.982;5.916;2023-12-14T07:30:33;101308.19;;;5.87;97.87
74329;BME280;62749;51.982;5.916;2023-12-14T07:33:16;101307.34;;;5.87;98.87
74329;BME280;62749;51.982;5.916;2023-12-14T07:35:46;101306.47;;;5.84;98.48
74329;BME280;62749;51.982;5.916;2023-12-14T07:38:15;101310.00;;;5.82;99.24
74329;BME280;62749;51.982;5.916;2023-12-14T07:40:45;101321.31;;;5.86;98.86
74329;BME280;62749;51.982;5.916;2023-12-14T07:43:16;101327.47;;;5.84;98.45
74329;BME280;62749;51.982;5.916;2023-12-14T07:45:48;101335.31;;;5.83;99.18
74329;BME280;62749;51.982;5.916;2023-12-14T07:48:17;101340.56;;;5.83;99.51
74329;BME280;62749;51.982;5.916;2023-12-14T07:50:47;101331.91;;;5.78;98.46
74329;BME280;62749;51.982;5.916;2023-12-14T07:53:16;101334.53;;;5.76;96.35
74329;BME280;62749;51.982;5.916;2023-12-14T07:55:46;101339.00;;;5.69;96.92
74329;BME280;62749;51.982;5.916;2023-12-14T07:58:16;101351.25;;;5.69;96.69
74329;BME280;62749;51.982;5.916;2023-12-14T08:00:47;101351.38;;;5.60;97.76
74329;BME280;62749;51.982;5.916;2023-12-14T08:03:17;101358.34;;;5.61;96.73
74329;BME280;62749;51.982;5.916;2023-12-14T08:05:47;101370.47;;;5.69;95.93
74329;BME280;62749;51.982;5.916;2023-12-14T08:08:17;101379.22;;;5.70;96.99
74329;BME280;62749;51.982;5.916;2023-12-14T08:10:46;101380.91;;;5.73;96.44
74329;BME280;62749;51.982;5.916;2023-12-14T08:13:16;101374.88;;;5.67;97.08
74329;BME280;62749;51.982;5.916;2023-12-14T08:15:48;101381.78;;;5.73;97.05
74329;BME280;62749;51.982;5.916;2023-12-14T08:18:17;101392.22;;;5.76;97.56
74329;BME280;62749;51.982;5.916;2023-12-14T08:20:46;101390.56;;;5.72;96.73
74329;BME280;62749;51.982;5.916;2023-12-14T08:23:21;101399.25;;;5.73;96.83
74329;BME280;62749;51.982;5.916;2023-12-14T08:25:53;101412.38;;;5.73;95.48
74329;BME280;62749;51.982;5.916;2023-12-14T08:28:23;101406.28;;;5.71;94.66
74329;BME280;62749;51.982;5.916;2023-12-14T08:30:55;101411.53;;;5.72;95.74
74329;BME280;62749;51.982;5.916;2023-12-14T08:33:25;101414.06;;;5.78;95.05
74329;BME280;62749;51.982;5.916;2023-12-14T08:35:54;101423.69;;;5.78;95.33
74329;BME280;62749;51.982;5.916;2023-12-14T08:38:24;101423.75;;;5.72;94.72
74329;BME280;62749;51.982;5.916;2023-12-14T08:40:53;101415.94;;;5.67;95.17
74329;BME280;62749;51.982;5.916;2023-12-14T08:43:22;101433.34;;;5.73;96.06
74329;BME280;62749;51.982;5.916;2023-12-14T08:45:54;101448.16;;;5.75;96.39
74329;BME280;62749;51.982;5.916;2023-12-14T08:48:24;101448.16;;;5.75;96.88
74329;BME280;62749;51.982;5.916;2023-12-14T08:51:03;101449.91;;;5.76;95.80
74329;BME280;62749;51.982;5.916;2023-12-14T08:53:33;101448.16;;;5.75;96.37
74329;BME280;62749;51.982;5.916;2023-12-14T08:56:03;101455.22;;;5.73;94.63
74329;BME280;62749;51.982;5.916;2023-12-14T08:58:32;101463.09;;;5.70;96.08
74329;BME280;62749;51.982;5.916;2023-12-14T09:01:05;101463.09;;;5.70;95.77
74329;BME280;62749;51.982;5.916;2023-12-14T09:03:34;101459.59;;;5.71;95.03
74329;BME280;62749;51.982;5.916;2023-12-14T09:06:04;101461.34;;;5.72;92.97
74329;BME280;62749;51.982;5.916;2023-12-14T09:08:34;101477.94;;;5.74;92.97
74329;BME280;62749;51.982;5.916;2023-12-14T09:11:03;101479.63;;;5.77;93.16
74329;BME280;62749;51.982;5.916;2023-12-14T09:13:33;101481.44;;;5.73;93.83
74329;BME280;62749;51.982;5.916;2023-12-14T09:16:05;101479.69;;;5.72;93.67
74329;BME280;62749;51.982;5.916;2023-12-14T09:18:35;101480.53;;;5.76;95.57
74329;BME280;62749;51.982;5.916;2023-12-14T09:21:04;101476.97;;;5.78;95.02
74329;BME280;62749;51.982;5.916;2023-12-14T09:23:34;101479.59;;;5.78;94.86
74329;BME280;62749;51.982;5.916;2023-12-14T09:26:03;101489.22;;;5.79;94.80
74329;BME280;62749;51.982;5.916;2023-12-14T09:28:33;101494.47;;;5.79;94.30
74329;BME280;62749;51.982;5.916;2023-12-14T09:31:05;101500.59;;;5.80;95.28
74329;BME280;62749;51.982;5.916;2023-12-14T09:33:40;101495.38;;;5.75;94.78
74329;BME280;62749;51.982;5.916;2023-12-14T09:36:09;101506.81;;;5.68;94.80
74329;BME280;62749;51.982;5.916;2023-12-14T09:38:39;101511.22;;;5.67;95.90
74329;BME280;62749;51.982;5.916;2023-12-14T09:41:08;101468.56;;;5.50;95.35
74329;BME280;62749;51.982;5.916;2023-12-14T09:43:38;101518.06;;;5.76;95.79
74329;BME280;62749;51.982;5.916;2023-12-14T09:46:11;101518.03;;;5.82;97.19
74329;BME280;62749;51.982;5.916;2023-12-14T09:48:40;101523.31;;;5.76;95.38
74329;BME280;62749;51.982;5.916;2023-12-14T09:51:12;101531.28;;;5.70;95.55
74329;BME280;62749;51.982;5.916;2023-12-14T09:53:42;101525.13;;;5.69;96.85
74329;BME280;62749;51.982;5.916;2023-12-14T09:56:13;101539.91;;;5.81;96.21
74329;BME280;62749;51.982;5.916;2023-12-14T09:58:42;101547.78;;;5.78;95.59
74329;BME280;62749;51.982;5.916;2023-12-14T10:01:24;101552.22;;;5.72;95.79
74329;BME280;62749;51.982;5.916;2023-12-14T10:04:09;101558.28;;;5.75;96.96
74329;BME280;62749;51.982;5.916;2023-12-14T10:06:40;101549.59;;;5.73;96.44
74329;BME280;62749;51.982;5.916;2023-12-14T10:09:10;101568.75;;;5.81;97.22
74329;BME280;62749;51.982;5.916;2023-12-14T10:11:43;101566.06;;;5.86;95.85
74329;BME280;62749;51.982;5.916;2023-12-14T10:14:20;101570.44;;;5.84;96.39
74329;BME280;62749;51.982;5.916;2023-12-14T10:20:00;101574.78;;;5.88;96.71
74329;BME280;62749;51.982;5.916;2023-12-14T10:22:31;101592.19;;;5.95;94.87
74329;BME280;62749;51.982;5.916;2023-12-14T10:25:04;101590.56;;;5.87;95.79
74329;BME280;62749;51.982;5.916;2023-12-14T10:27:37;101594.06;;;5.82;96.75
74329;BME280;62749;51.982;5.916;2023-12-14T10:30:08;101586.19;;;5.84;97.69
74329;BME280;62749;51.982;5.916;2023-12-14T10:32:39;101587.88;;;5.90;97.51
74329;BME280;62749;51.982;5.916;2023-12-14T10:35:11;101589.63;;;5.88;95.93
74329;BME280;62749;51.982;5.916;2023-12-14T10:37:42;101593.97;;;5.92;96.53
74329;BME280;62749;51.982;5.916;2023-12-14T10:40:14;101600.06;;;5.95;95.38
74329;BME280;62749;51.982;5.916;2023-12-14T10:42:44;101597.47;;;5.94;94.84
74329;BME280;62749;51.982;5.916;2023-12-14T10:45:15;101605.41;;;5.83;93.97
74329;BME280;62749;51.982;5.916;2023-12-14T10:47:48;101612.41;;;5.86;94.14
74329;BME280;62749;51.982;5.916;2023-12-14T10:50:22;101614.31;;;5.68;96.05
74329;BME280;62749;51.982;5.916;2023-12-14T10:52:51;101599.47;;;5.67;97.38
74329;BME280;62749;51.982;5.916;2023-12-14T10:55:25;101610.72;;;5.78;96.78
74329;BME280;62749;51.982;5.916;2023-12-14T10:57:57;101615.03;;;5.84;95.71
74329;BME280;62749;51.982;5.916;2023-12-14T11:00:27;101612.44;;;5.82;97.51
74329;BME280;62749;51.982;5.916;2023-12-14T11:02:57;101608.84;;;5.90;97.90
74329;BME280;62749;51.982;5.916;2023-12-14T11:05:29;101609.72;;;5.92;96.17
74329;BME280;62749;51.982;5.916;2023-12-14T11:08:01;101611.53;;;5.85;95.10
74329;BME280;62749;51.982;5.916;2023-12-14T11:10:37;101603.69;;;5.82;94.72
74329;BME280;62749;51.982;5.916;2023-12-14T11:13:09;101606.31;;;5.80;96.53
74329;BME280;62749;51.982;5.916;2023-12-14T11:15:56;101620.25;;;5.87;97.10
74329;BME280;62749;51.982;5.916;2023-12-14T11:18:27;101620.31;;;5.82;96.49
74329;BME280;62749;51.982;5.916;2023-12-14T11:21:01;101633.31;;;5.92;96.59
74329;BME280;62749;51.982;5.916;2023-12-14T11:23:33;101642.16;;;5.84;94.34
74329;BME280;62749;51.982;5.916;2023-12-14T11:26:04;101643.91;;;5.82;94.60
74329;BME280;62749;51.982;5.916;2023-12-14T11:28:36;101643.91;;;5.82;96.95
74329;BME280;62749;51.982;5.916;2023-12-14T11:31:10;101636.91;;;5.84;97.69
74329;BME280;62749;51.982;5.916;2023-12-14T11:33:40;101636.78;;;5.95;97.35
74329;BME280;62749;51.982;5.916;2023-12-14T11:36:16;101651.66;;;5.99;97.21
74329;BME280;62749;51.982;5.916;2023-12-14T11:38:47;101645.50;;;5.97;96.42
74329;BME280;62749;51.982;5.916;2023-12-14T11:41:17;101651.66;;;5.99;96.80
74329;BME280;62749;51.982;5.916;2023-12-14T11:43:46;101655.97;;;6.05;96.02
74329;BME280;62749;51.982;5.916;2023-12-14T11:46:16;101663.78;;;6.10;95.32
74329;BME280;62749;51.982;5.916;2023-12-14T11:48:46;101669.13;;;5.94;94.96
74329;BME280;62749;51.982;5.916;2023-12-14T11:51:18;101657.81;;;5.91;94.27
74329;BME280;62749;51.982;5.916;2023-12-14T11:53:47;101666.53;;;5.93;96.01
74329;BME280;62749;51.982;5.916;2023-12-14T11:56:17;101668.22;;;6.03;94.53
74329;BME280;62749;51.982;5.916;2023-12-14T11:58:49;101673.53;;;6.00;94.00
74329;BME280;62749;51.982;5.916;2023-12-14T12:01:20;101670.00;;;5.96;95.53
74329;BME280;62749;51.982;5.916;2023-12-14T12:03:52;101671.75;;;5.99;95.78
74329;BME280;62749;51.982;5.916;2023-12-14T12:06:26;101672.59;;;6.04;96.20
74329;BME280;62749;51.982;5.916;2023-12-14T12:08:56;101661.19;;;6.07;95.55
74329;BME280;62749;51.982;5.916;2023-12-14T12:11:26;101662.84;;;6.16;93.18
74329;BME280;62749;51.982;5.916;2023-12-14T12:13:57;101651.50;;;6.13;93.19
74329;BME280;62749;51.982;5.916;2023-12-14T12:16:26;101662.84;;;6.16;93.21
74329;BME280;62749;51.982;5.916;2023-12-14T12:18:56;101667.19;;;6.21;93.80
74329;BME280;62749;51.982;5.916;2023-12-14T12:21:27;101660.13;;;6.29;93.13
74329;BME280;62749;51.982;5.916;2023-12-14T12:23:57;101667.13;;;6.27;92.47
74329;BME280;62749;51.982;5.916;2023-12-14T12:26:26;101670.59;;;6.31;92.26
74329;BME280;62749;51.982;5.916;2023-12-14T12:28:56;101679.28;;;6.36;92.32
74329;BME280;62749;51.982;5.916;2023-12-14T12:31:46;101689.69;;;6.45;89.55
74329;BME280;62749;51.982;5.916;2023-12-14T12:34:15;101681.88;;;6.39;91.28
74329;BME280;62749;51.982;5.916;2023-12-14T12:36:45;101672.34;;;6.29;88.83
74329;BME280;62749;51.982;5.916;2023-12-14T12:39:14;101672.41;;;6.24;89.53
74329;BME280;62749;51.982;5.916;2023-12-14T12:41:43;101678.47;;;6.31;87.73
74329;BME280;62749;51.982;5.916;2023-12-14T12:44:13;101686.31;;;6.33;86.97
74329;BME280;62749;51.982;5.916;2023-12-14T12:46:43;101695.09;;;6.27;88.50
74329;BME280;62749;51.982;5.916;2023-12-14T12:49:12;101695.91;;;6.34;87.89
74329;BME280;62749;51.982;5.916;2023-12-14T12:51:41;101696.84;;;6.29;90.08
74329;BME280;62749;51.982;5.916;2023-12-14T12:54:13;101695.13;;;6.28;89.84
74329;BME280;62749;51.982;5.916;2023-12-14T12:56:43;101703.78;;;6.34;89.21
74329;BME280;62749;51.982;5.916;2023-12-14T12:59:12;101698.53;;;6.34;87.18
74329;BME280;62749;51.982;5.916;2023-12-14T13:01:41;101707.38;;;6.26;89.25
74329;BME280;62749;51.982;5.916;2023-12-14T13:04:18;101711.72;;;6.29;91.35
74329;BME280;62749;51.982;5.916;2023-12-14T13:06:49;101709.16;;;6.23;91.56
74329;BME280;62749;51.982;5.916;2023-12-14T13:09:30;101712.59;;;6.29;91.31
74329;BME280;62749;51.982;5.916;2023-12-14T13:11:59;101717.78;;;6.37;90.79
74329;BME280;62749;51.982;5.916;2023-12-14T13:14:29;101715.97;;;6.39;88.67
74329;BME280;62749;51.982;5.916;2023-12-14T13:16:58;101713.41;;;6.35;86.44
74329;BME280;62749;51.982;5.916;2023-12-14T13:19:27;101721.34;;;6.27;87.15
74329;BME280;62749;51.982;5.916;2023-12-14T13:21:57;101717.97;;;6.17;87.45